sensor_id;sensor_type;location;lat;lon;timestamp;temperature;humidity
68922;DHT22;55959;51.244;5.724;2022-10-16T00:01:14;17.30;70.80
68922;DHT22;55959;51.244;5.724;2022-10-16T00:03:42;17.30;70.80
68922;DHT22;55959;51.244;5.724;2022-10-16T00:06:09;17.30;70.80
68922;DHT22;55959;51.244;5.724;2022-10-16T00:08:36;17.30;70.90
68922;DHT22;55959;51.244;5.724;2022-10-16T00:11:09;17.30;70.80
68922;DHT22;55959;51.244;5.724;2022-10-16T00:13:37;17.30;70.90
68922;DHT22;55959;51.244;5.724;2022-10-16T00:16:05;17.30;70.90
68922;DHT22;55959;51.244;5.724;2022-10-16T00:18:31;17.30;70.90
68922;DHT22;55959;51.244;5.724;2022-10-16T00:21:03;17.30;70.90
68922;DHT22;55959;51.244;5.724;2022-10-16T00:23:33;17.30;70.90
68922;DHT22;55959;51.244;5.724;2022-10-16T00:26:02;17.30;70.90
68922;DHT22;55959;51.244;5.724;2022-10-16T00:28:33;17.30;70.90
68922;DHT22;55959;51.244;5.724;2022-10-16T00:31:03;17.20;70.80
68922;DHT22;55959;51.244;5.724;2022-10-16T00:33:34;17.20;70.90
68922;DHT22;55959;51.244;5.724;2022-10-16T00:36:01;17.20;70.80
68922;DHT22;55959;51.244;5.724;2022-10-16T00:38:28;17.20;70.70
68922;DHT22;55959;51.244;5.724;2022-10-16T00:40:54;17.20;70.70
68922;DHT22;55959;51.244;5.724;2022-10-16T00:48:39;17.20;70.50
68922;DHT22;55959;51.244;5.724;2022-10-16T00:51:06;17.20;70.50
68922;DHT22;55959;51.244;5.724;2022-10-16T00:53:33;17.10;70.40
68922;DHT22;55959;51.244;5.724;2022-10-16T00:55:59;17.10;70.40
68922;DHT22;55959;51.244;5.724;2022-10-16T00:58:25;17.10;70.50
68922;DHT22;55959;51.244;5.724;2022-10-16T01:00:50;17.10;70.40
68922;DHT22;55959;51.244;5.724;2022-10-16T01:03:29;17.10;70.40
68922;DHT22;55959;51.244;5.724;2022-10-16T01:06:25;17.10;70.40
68922;DHT22;55959;51.244;5.724;2022-10-16T01:12:38;17.10;70.40
68922;DHT22;55959;51.244;5.724;2022-10-16T01:18:43;17.00;70.40
68922;DHT22;55959;51.244;5.724;2022-10-16T01:21:24;17.00;70.40
68922;DHT22;55959;51.244;5.724;2022-10-16T01:24:14;17.00;70.40
68922;DHT22;55959;51.244;5.724;2022-10-16T01:27:05;17.00;70.50
68922;DHT22;55959;51.244;5.724;2022-10-16T01:32:59;17.00;70.60
68922;DHT22;55959;51.244;5.724;2022-10-16T01:38:40;16.90;70.60
68922;DHT22;55959;51.244;5.724;2022-10-16T01:41:21;16.80;70.50
68922;DHT22;55959;51.244;5.724;2022-10-16T01:46:59;16.80;70.80
68922;DHT22;55959;51.244;5.724;2022-10-16T01:49:28;16.80;70.70
68922;DHT22;55959;51.244;5.724;2022-10-16T01:51:58;16.80;70.70
68922;DHT22;55959;51.244;5.724;2022-10-16T01:54:27;16.80;70.70
68922;DHT22;55959;51.244;5.724;2022-10-16T01:56:55;16.80;70.80
68922;DHT22;55959;51.244;5.724;2022-10-16T01:59:24;16.70;70.70
68922;DHT22;55959;51.244;5.724;2022-10-16T02:01:55;16.80;70.90
68922;DHT22;55959;51.244;5.724;2022-10-16T02:04:31;16.80;70.90
68922;DHT22;55959;51.244;5.724;2022-10-16T02:07:00;16.70;70.90
68922;DHT22;55959;51.244;5.724;2022-10-16T02:09:26;16.70;70.90
68922;DHT22;55959;51.244;5.724;2022-10-16T02:11:54;16.70;70.90
68922;DHT22;55959;51.244;5.724;2022-10-16T02:14:21;16.70;70.90
68922;DHT22;55959;51.244;5.724;2022-10-16T02:16:49;16.70;70.90
68922;DHT22;55959;51.244;5.724;2022-10-16T02:19:17;16.70;70.90
68922;DHT22;55959;51.244;5.724;2022-10-16T02:21:54;16.70;70.90
68922;DHT22;55959;51.244;5.724;2022-10-16T02:24:33;16.70;70.90
68922;DHT22;55959;51.244;5.724;2022-10-16T02:30:19;16.70;71.00
68922;DHT22;55959;51.244;5.724;2022-10-16T02:32:49;16.60;71.10
68922;DHT22;55959;51.244;5.724;2022-10-16T02:35:18;16.60;71.30
68922;DHT22;55959;51.244;5.724;2022-10-16T02:37:46;16.60;71.40
68922;DHT22;55959;51.244;5.724;2022-10-16T02:40:13;16.60;71.40
68922;DHT22;55959;51.244;5.724;2022-10-16T02:42:40;16.60;71.40
68922;DHT22;55959;51.244;5.724;2022-10-16T02:45:07;16.60;71.30
68922;DHT22;55959;51.244;5.724;2022-10-16T02:47:34;16.60;71.30
68922;DHT22;55959;51.244;5.724;2022-10-16T02:50:00;16.60;71.50
68922;DHT22;55959;51.244;5.724;2022-10-16T02:52:26;16.60;71.50
68922;DHT22;55959;51.244;5.724;2022-10-16T02:54:51;16.60;71.50
68922;DHT22;55959;51.244;5.724;2022-10-16T02:57:17;16.60;71.70
68922;DHT22;55959;51.244;5.724;2022-10-16T02:59:44;16.60;71.70
68922;DHT22;55959;51.244;5.724;2022-10-16T03:02:10;16.60;71.80
68922;DHT22;55959;51.244;5.724;2022-10-16T03:04:36;16.60;71.70
68922;DHT22;55959;51.244;5.724;2022-10-16T03:07:02;16.60;71.80
68922;DHT22;55959;51.244;5.724;2022-10-16T03:09:31;16.60;71.90
68922;DHT22;55959;51.244;5.724;2022-10-16T03:11:56;16.60;71.90
68922;DHT22;55959;51.244;5.724;2022-10-16T03:14:22;16.60;71.80
68922;DHT22;55959;51.244;5.724;2022-10-16T03:16:48;16.60;71.90
68922;DHT22;55959;51.244;5.724;2022-10-16T03:19:15;16.60;72.10
68922;DHT22;55959;51.244;5.724;2022-10-16T03:21:42;16.60;72.10
68922;DHT22;55959;51.244;5.724;2022-10-16T03:24:07;16.60;72.00
68922;DHT22;55959;51.244;5.724;2022-10-16T03:26:33;16.60;72.00
68922;DHT22;55959;51.244;5.724;2022-10-16T03:28:59;16.60;71.90
68922;DHT22;55959;51.244;5.724;2022-10-16T03:31:24;16.50;71.80
68922;DHT22;55959;51.244;5.724;2022-10-16T03:33:50;16.60;71.80
68922;DHT22;55959;51.244;5.724;2022-10-16T03:36:16;16.50;71.80
68922;DHT22;55959;51.244;5.724;2022-10-16T03:38:42;16.50;71.90
68922;DHT22;55959;51.244;5.724;2022-10-16T03:41:07;16.50;71.80
68922;DHT22;55959;51.244;5.724;2022-10-16T03:43:33;16.50;71.80
68922;DHT22;55959;51.244;5.724;2022-10-16T03:45:59;16.50;71.70
68922;DHT22;55959;51.244;5.724;2022-10-16T03:48:25;16.50;71.70
68922;DHT22;55959;51.244;5.724;2022-10-16T03:50:50;16.50;71.70
68922;DHT22;55959;51.244;5.724;2022-10-16T03:53:17;16.50;71.70
68922;DHT22;55959;51.244;5.724;2022-10-16T03:55:43;16.50;71.80
68922;DHT22;55959;51.244;5.724;2022-10-16T03:58:09;16.50;71.90
68922;DHT22;55959;51.244;5.724;2022-10-16T04:00:39;16.50;71.90
68922;DHT22;55959;51.244;5.724;2022-10-16T04:03:08;16.50;71.90
68922;DHT22;55959;51.244;5.724;2022-10-16T04:05:34;16.50;72.50
68922;DHT22;55959;51.244;5.724;2022-10-16T04:08:00;16.50;72.10
68922;DHT22;55959;51.244;5.724;2022-10-16T04:10:26;16.50;72.10
68922;DHT22;55959;51.244;5.724;2022-10-16T04:12:51;16.50;72.10
68922;DHT22;55959;51.244;5.724;2022-10-16T04:15:19;16.50;72.10
68922;DHT22;55959;51.244;5.724;2022-10-16T04:17:45;16.50;72.10
68922;DHT22;55959;51.244;5.724;2022-10-16T04:20:11;16.50;72.10
68922;DHT22;55959;51.244;5.724;2022-10-16T04:22:37;16.50;72.10
68922;DHT22;55959;51.244;5.724;2022-10-16T04:25:03;16.50;72.10
68922;DHT22;55959;51.244;5.724;2022-10-16T04:27:29;16.50;72.30
68922;DHT22;55959;51.244;5.724;2022-10-16T04:29:59;16.50;72.40
68922;DHT22;55959;51.244;5.724;2022-10-16T04:32:26;16.50;72.40
68922;DHT22;55959;51.244;5.724;2022-10-16T04:34:52;16.50;72.40
68922;DHT22;55959;51.244;5.724;2022-10-16T04:37:18;16.50;72.50
68922;DHT22;55959;51.244;5.724;2022-10-16T04:39:44;16.50;72.60
68922;DHT22;55959;51.244;5.724;2022-10-16T04:42:10;16.50;72.60
68922;DHT22;55959;51.244;5.724;2022-10-16T04:44:36;16.50;72.70
68922;DHT22;55959;51.244;5.724;2022-10-16T04:47:02;16.50;72.70
68922;DHT22;55959;51.244;5.724;2022-10-16T04:49:29;16.50;72.70
68922;DHT22;55959;51.244;5.724;2022-10-16T04:51:55;16.50;72.80
68922;DHT22;55959;51.244;5.724;2022-10-16T04:54:20;16.50;72.80
68922;DHT22;55959;51.244;5.724;2022-10-16T04:56:46;16.50;72.90
68922;DHT22;55959;51.244;5.724;2022-10-16T04:59:17;16.50;72.90
68922;DHT22;55959;51.244;5.724;2022-10-16T05:01:43;16.50;73.00
68922;DHT22;55959;51.244;5.724;2022-10-16T05:04:10;16.50;73.10
68922;DHT22;55959;51.244;5.724;2022-10-16T05:06:36;16.50;73.10
68922;DHT22;55959;51.244;5.724;2022-10-16T05:09:04;16.50;73.10
68922;DHT22;55959;51.244;5.724;2022-10-16T05:11:31;16.50;73.10
68922;DHT22;55959;51.244;5.724;2022-10-16T05:13:57;16.50;73.20
68922;DHT22;55959;51.244;5.724;2022-10-16T05:16:24;16.50;73.20
68922;DHT22;55959;51.244;5.724;2022-10-16T05:18:51;16.50;73.20
68922;DHT22;55959;51.244;5.724;2022-10-16T05:21:17;16.50;73.10
68922;DHT22;55959;51.244;5.724;2022-10-16T05:23:43;16.50;73.10
68922;DHT22;55959;51.244;5.724;2022-10-16T05:26:08;16.50;73.10
68922;DHT22;55959;51.244;5.724;2022-10-16T05:28:35;16.50;73.10
68922;DHT22;55959;51.244;5.724;2022-10-16T05:31:05;16.50;73.10
68922;DHT22;55959;51.244;5.724;2022-10-16T05:33:32;16.50;73.20
68922;DHT22;55959;51.244;5.724;2022-10-16T05:36:04;16.50;73.30
68922;DHT22;55959;51.244;5.724;2022-10-16T05:38:35;16.50;73.40
68922;DHT22;55959;51.244;5.724;2022-10-16T05:41:03;16.50;73.40
68922;DHT22;55959;51.244;5.724;2022-10-16T05:43:30;16.50;73.40
68922;DHT22;55959;51.244;5.724;2022-10-16T05:46:03;16.50;73.50
68922;DHT22;55959;51.244;5.724;2022-10-16T05:48:30;16.50;73.50
68922;DHT22;55959;51.244;5.724;2022-10-16T05:51:04;16.50;73.50
68922;DHT22;55959;51.244;5.724;2022-10-16T05:53:33;16.50;73.50
68922;DHT22;55959;51.244;5.724;2022-10-16T05:56:01;16.50;73.50
68922;DHT22;55959;51.244;5.724;2022-10-16T05:58:32;16.50;74.40
68922;DHT22;55959;51.244;5.724;2022-10-16T06:01:04;16.50;73.60
68922;DHT22;55959;51.244;5.724;2022-10-16T06:03:33;16.50;73.60
68922;DHT22;55959;51.244;5.724;2022-10-16T06:05:59;16.50;73.60
68922;DHT22;55959;51.244;5.724;2022-10-16T06:08:33;16.50;73.60
68922;DHT22;55959;51.244;5.724;2022-10-16T06:11:04;16.50;73.60
68922;DHT22;55959;51.244;5.724;2022-10-16T06:13:31;16.50;73.60
68922;DHT22;55959;51.244;5.724;2022-10-16T06:15:58;16.50;73.60
68922;DHT22;55959;51.244;5.724;2022-10-16T06:18:26;16.50;73.70
68922;DHT22;55959;51.244;5.724;2022-10-16T06:20:52;16.50;73.70
68922;DHT22;55959;51.244;5.724;2022-10-16T06:23:18;16.50;73.70
68922;DHT22;55959;51.244;5.724;2022-10-16T06:25:44;16.50;73.70
68922;DHT22;55959;51.244;5.724;2022-10-16T06:28:10;16.50;73.70
68922;DHT22;55959;51.244;5.724;2022-10-16T06:30:35;16.50;73.70
68922;DHT22;55959;51.244;5.724;2022-10-16T06:33:01;16.50;73.70
68922;DHT22;55959;51.244;5.724;2022-10-16T06:35:27;16.50;73.70
68922;DHT22;55959;51.244;5.724;2022-10-16T06:37:54;16.50;73.70
68922;DHT22;55959;51.244;5.724;2022-10-16T06:40:20;16.50;73.80
68922;DHT22;55959;51.244;5.724;2022-10-16T06:42:46;16.50;73.70
68922;DHT22;55959;51.244;5.724;2022-10-16T06:45:11;16.50;73.70
68922;DHT22;55959;51.244;5.724;2022-10-16T06:47:38;16.50;73.70
68922;DHT22;55959;51.244;5.724;2022-10-16T06:50:04;16.50;73.70
68922;DHT22;55959;51.244;5.724;2022-10-16T06:52:32;16.50;73.70
68922;DHT22;55959;51.244;5.724;2022-10-16T06:54:59;16.50;73.70
68922;DHT22;55959;51.244;5.724;2022-10-16T06:57:25;16.50;73.80
68922;DHT22;55959;51.244;5.724;2022-10-16T06:59:51;16.50;73.90
68922;DHT22;55959;51.244;5.724;2022-10-16T07:02:16;16.50;73.90
68922;DHT22;55959;51.244;5.724;2022-10-16T07:04:42;16.50;73.90
68922;DHT22;55959;51.244;5.724;2022-10-16T07:07:08;16.50;73.90
68922;DHT22;55959;51.244;5.724;2022-10-16T07:09:34;16.50;73.90
68922;DHT22;55959;51.244;5.724;2022-10-16T07:11:59;16.50;74.00
68922;DHT22;55959;51.244;5.724;2022-10-16T07:14:25;16.50;73.90
68922;DHT22;55959;51.244;5.724;2022-10-16T07:16:51;16.50;74.00
68922;DHT22;55959;51.244;5.724;2022-10-16T07:19:17;16.50;74.00
68922;DHT22;55959;51.244;5.724;2022-10-16T07:21:43;16.50;74.00
68922;DHT22;55959;51.244;5.724;2022-10-16T07:24:18;16.50;74.10
68922;DHT22;55959;51.244;5.724;2022-10-16T07:26:45;16.50;74.10
68922;DHT22;55959;51.244;5.724;2022-10-16T07:29:13;16.60;74.10
68922;DHT22;55959;51.244;5.724;2022-10-16T07:31:41;16.60;74.30
68922;DHT22;55959;51.244;5.724;2022-10-16T07:34:07;16.60;74.30
68922;DHT22;55959;51.244;5.724;2022-10-16T07:36:33;16.60;74.30
68922;DHT22;55959;51.244;5.724;2022-10-16T07:38:59;16.60;74.40
68922;DHT22;55959;51.244;5.724;2022-10-16T07:41:25;16.60;74.50
68922;DHT22;55959;51.244;5.724;2022-10-16T07:43:52;16.70;74.60
68922;DHT22;55959;51.244;5.724;2022-10-16T07:46:19;16.70;74.70
68922;DHT22;55959;51.244;5.724;2022-10-16T07:48:46;16.70;74.80
68922;DHT22;55959;51.244;5.724;2022-10-16T07:51:16;16.70;74.90
68922;DHT22;55959;51.244;5.724;2022-10-16T07:53:43;16.70;74.90
68922;DHT22;55959;51.244;5.724;2022-10-16T07:56:09;16.70;74.90
68922;DHT22;55959;51.244;5.724;2022-10-16T07:58:35;16.80;74.90
68922;DHT22;55959;51.244;5.724;2022-10-16T08:01:11;16.80;74.90
68922;DHT22;55959;51.244;5.724;2022-10-16T08:03:41;16.80;75.10
68922;DHT22;55959;51.244;5.724;2022-10-16T08:06:08;16.90;75.10
68922;DHT22;55959;51.244;5.724;2022-10-16T08:08:34;16.90;75.20
68922;DHT22;55959;51.244;5.724;2022-10-16T08:11:00;17.00;75.30
68922;DHT22;55959;51.244;5.724;2022-10-16T08:13:29;17.00;75.30
68922;DHT22;55959;51.244;5.724;2022-10-16T08:15:55;17.00;75.30
68922;DHT22;55959;51.244;5.724;2022-10-16T08:18:21;17.00;75.30
68922;DHT22;55959;51.244;5.724;2022-10-16T08:20:47;17.10;75.30
68922;DHT22;55959;51.244;5.724;2022-10-16T08:23:13;17.10;75.30
68922;DHT22;55959;51.244;5.724;2022-10-16T08:25:39;17.20;75.30
68922;DHT22;55959;51.244;5.724;2022-10-16T08:28:07;17.20;75.20
68922;DHT22;55959;51.244;5.724;2022-10-16T08:30:35;17.20;75.20
68922;DHT22;55959;51.244;5.724;2022-10-16T08:33:01;17.30;75.30
68922;DHT22;55959;51.244;5.724;2022-10-16T08:35:28;17.30;75.30
68922;DHT22;55959;51.244;5.724;2022-10-16T08:37:53;17.40;75.30
68922;DHT22;55959;51.244;5.724;2022-10-16T08:40:25;17.40;75.10
68922;DHT22;55959;51.244;5.724;2022-10-16T08:48:53;17.50;75.10
68922;DHT22;55959;51.244;5.724;2022-10-16T08:51:30;17.60;75.10
68922;DHT22;55959;51.244;5.724;2022-10-16T08:53:59;17.60;75.00
68922;DHT22;55959;51.244;5.724;2022-10-16T08:56:28;17.60;74.90
68922;DHT22;55959;51.244;5.724;2022-10-16T08:58:54;17.70;74.90
68922;DHT22;55959;51.244;5.724;2022-10-16T09:01:22;17.70;74.90
68922;DHT22;55959;51.244;5.724;2022-10-16T09:06:56;17.80;74.80
68922;DHT22;55959;51.244;5.724;2022-10-16T09:12:21;17.90;74.70
68922;DHT22;55959;51.244;5.724;2022-10-16T09:17:41;17.90;74.50
68922;DHT22;55959;51.244;5.724;2022-10-16T09:23:32;18.10;74.40
68922;DHT22;55959;51.244;5.724;2022-10-16T09:26:03;18.10;74.30
68922;DHT22;55959;51.244;5.724;2022-10-16T09:28:30;18.10;74.30
68922;DHT22;55959;51.244;5.724;2022-10-16T09:30:56;18.20;74.20
68922;DHT22;55959;51.244;5.724;2022-10-16T09:33:28;18.20;74.10
68922;DHT22;55959;51.244;5.724;2022-10-16T09:35:56;18.30;74.10
68922;DHT22;55959;51.244;5.724;2022-10-16T09:38:29;18.30;74.10
68922;DHT22;55959;51.244;5.724;2022-10-16T09:40:59;18.40;74.00
68922;DHT22;55959;51.244;5.724;2022-10-16T09:43:30;18.40;73.90
68922;DHT22;55959;51.244;5.724;2022-10-16T09:46:07;18.50;73.90
68922;DHT22;55959;51.244;5.724;2022-10-16T09:48:44;18.60;73.70
68922;DHT22;55959;51.244;5.724;2022-10-16T09:51:35;18.60;73.50
68922;DHT22;55959;51.244;5.724;2022-10-16T09:54:17;18.70;73.50
68922;DHT22;55959;51.244;5.724;2022-10-16T09:56:44;18.70;73.50
68922;DHT22;55959;51.244;5.724;2022-10-16T09:59:19;18.80;73.30
68922;DHT22;55959;51.244;5.724;2022-10-16T10:01:50;18.80;73.20
68922;DHT22;55959;51.244;5.724;2022-10-16T10:04:19;18.90;73.00
68922;DHT22;55959;51.244;5.724;2022-10-16T10:06:56;18.90;72.80
68922;DHT22;55959;51.244;5.724;2022-10-16T10:09:23;19.00;72.80
68922;DHT22;55959;51.244;5.724;2022-10-16T10:12:04;19.10;72.90
68922;DHT22;55959;51.244;5.724;2022-10-16T10:14:39;19.10;72.80
68922;DHT22;55959;51.244;5.724;2022-10-16T10:17:18;19.20;72.80
68922;DHT22;55959;51.244;5.724;2022-10-16T10:19:55;19.30;72.60
68922;DHT22;55959;51.244;5.724;2022-10-16T10:22:28;19.40;72.40
68922;DHT22;55959;51.244;5.724;2022-10-16T10:30:14;19.50;71.60
68922;DHT22;55959;51.244;5.724;2022-10-16T10:41:27;19.70;70.80
68922;DHT22;55959;51.244;5.724;2022-10-16T10:44:03;19.70;70.80
68922;DHT22;55959;51.244;5.724;2022-10-16T10:58:52;20.00;70.20
68922;DHT22;55959;51.244;5.724;2022-10-16T11:01:48;20.10;70.00
68922;DHT22;55959;51.244;5.724;2022-10-16T11:07:23;20.20;69.30
68922;DHT22;55959;51.244;5.724;2022-10-16T11:09:55;20.20;69.00
68922;DHT22;55959;51.244;5.724;2022-10-16T11:12:27;20.30;69.10
68922;DHT22;55959;51.244;5.724;2022-10-16T11:15:19;20.30;69.10
68922;DHT22;55959;51.244;5.724;2022-10-16T11:17:59;20.40;68.80
68922;DHT22;55959;51.244;5.724;2022-10-16T11:20:41;20.40;68.40
68922;DHT22;55959;51.244;5.724;2022-10-16T11:26:39;20.50;67.80
68922;DHT22;55959;51.244;5.724;2022-10-16T11:29:14;20.60;67.80
68922;DHT22;55959;51.244;5.724;2022-10-16T11:31:47;20.60;67.50
68922;DHT22;55959;51.244;5.724;2022-10-16T11:34:23;20.60;67.00
68922;DHT22;55959;51.244;5.724;2022-10-16T11:37:09;20.70;66.90
68922;DHT22;55959;51.244;5.724;2022-10-16T11:39:38;20.70;67.00
68922;DHT22;55959;51.244;5.724;2022-10-16T11:42:11;20.80;67.20
68922;DHT22;55959;51.244;5.724;2022-10-16T11:45:00;20.80;67.30
68922;DHT22;55959;51.244;5.724;2022-10-16T11:47:42;20.90;67.20
68922;DHT22;55959;51.244;5.724;2022-10-16T11:50:37;20.90;66.70
68922;DHT22;55959;51.244;5.724;2022-10-16T11:56:18;21.00;66.90
68922;DHT22;55959;51.244;5.724;2022-10-16T11:59:15;21.10;66.70
68922;DHT22;55959;51.244;5.724;2022-10-16T12:02:00;21.10;66.80
68922;DHT22;55959;51.244;5.724;2022-10-16T12:04:55;21.20;66.70
68922;DHT22;55959;51.244;5.724;2022-10-16T12:07:32;21.30;66.50
68922;DHT22;55959;51.244;5.724;2022-10-16T12:10:22;21.40;66.30
68922;DHT22;55959;51.244;5.724;2022-10-16T12:12:50;21.40;66.60
68922;DHT22;55959;51.244;5.724;2022-10-16T12:15:23;21.50;65.60
68922;DHT22;55959;51.244;5.724;2022-10-16T12:17:56;21.60;65.60
68922;DHT22;55959;51.244;5.724;2022-10-16T12:20:30;21.60;65.30
68922;DHT22;55959;51.244;5.724;2022-10-16T12:25:36;21.80;65.00
68922;DHT22;55959;51.244;5.724;2022-10-16T12:28:17;21.90;64.80
68922;DHT22;55959;51.244;5.724;2022-10-16T12:30:57;22.00;64.60
68922;DHT22;55959;51.244;5.724;2022-10-16T12:33:26;22.00;64.10
68922;DHT22;55959;51.244;5.724;2022-10-16T12:35:55;22.10;63.90
68922;DHT22;55959;51.244;5.724;2022-10-16T12:38:28;22.10;63.40
68922;DHT22;55959;51.244;5.724;2022-10-16T12:41:06;22.20;63.90
68922;DHT22;55959;51.244;5.724;2022-10-16T12:48:34;22.40;61.60
68922;DHT22;55959;51.244;5.724;2022-10-16T12:54:11;22.50;60.60
68922;DHT22;55959;51.244;5.724;2022-10-16T12:59:59;22.50;60.30
68922;DHT22;55959;51.244;5.724;2022-10-16T13:03:29;22.50;59.40
68922;DHT22;55959;51.244;5.724;2022-10-16T13:12:58;22.60;59.60
68922;DHT22;55959;51.244;5.724;2022-10-16T13:15:40;22.60;59.70
68922;DHT22;55959;51.244;5.724;2022-10-16T13:18:16;22.60;59.90
68922;DHT22;55959;51.244;5.724;2022-10-16T13:21:11;22.60;59.70
68922;DHT22;55959;51.244;5.724;2022-10-16T13:29:46;22.70;59.20
68922;DHT22;55959;51.244;5.724;2022-10-16T13:32:19;22.70;59.10
68922;DHT22;55959;51.244;5.724;2022-10-16T13:34:47;22.70;59.00
68922;DHT22;55959;51.244;5.724;2022-10-16T13:37:22;22.70;59.00
68922;DHT22;55959;51.244;5.724;2022-10-16T13:39:49;22.80;58.90
68922;DHT22;55959;51.244;5.724;2022-10-16T13:42:29;22.80;58.90
68922;DHT22;55959;51.244;5.724;2022-10-16T13:44:55;22.80;58.90
68922;DHT22;55959;51.244;5.724;2022-10-16T13:47:27;22.80;58.70
68922;DHT22;55959;51.244;5.724;2022-10-16T13:52:28;22.80;58.40
68922;DHT22;55959;51.244;5.724;2022-10-16T13:54:53;22.80;58.20
68922;DHT22;55959;51.244;5.724;2022-10-16T13:57:22;22.90;58.10
68922;DHT22;55959;51.244;5.724;2022-10-16T13:59:50;22.80;58.00
68922;DHT22;55959;51.244;5.724;2022-10-16T14:04:56;22.90;57.80
68922;DHT22;55959;51.244;5.724;2022-10-16T14:07:31;22.90;57.60
68922;DHT22;55959;51.244;5.724;2022-10-16T14:10:03;22.90;57.60
68922;DHT22;55959;51.244;5.724;2022-10-16T14:12:34;22.80;57.50
68922;DHT22;55959;51.244;5.724;2022-10-16T14:15:00;22.80;57.60
68922;DHT22;55959;51.244;5.724;2022-10-16T14:17:31;22.80;57.60
68922;DHT22;55959;51.244;5.724;2022-10-16T14:20:03;22.80;57.50
68922;DHT22;55959;51.244;5.724;2022-10-16T14:22:36;22.80;57.50
68922;DHT22;55959;51.244;5.724;2022-10-16T14:27:45;22.80;57.30
68922;DHT22;55959;51.244;5.724;2022-10-16T14:30:22;22.70;57.10
68922;DHT22;55959;51.244;5.724;2022-10-16T14:32:58;22.70;57.10
68922;DHT22;55959;51.244;5.724;2022-10-16T14:35:33;22.70;57.00
68922;DHT22;55959;51.244;5.724;2022-10-16T14:38:02;22.70;56.90
68922;DHT22;55959;51.244;5.724;2022-10-16T14:40:32;22.70;57.00
68922;DHT22;55959;51.244;5.724;2022-10-16T14:43:00;22.60;57.00
68922;DHT22;55959;51.244;5.724;2022-10-16T14:45:32;22.60;57.00
68922;DHT22;55959;51.244;5.724;2022-10-16T14:48:02;22.60;57.10
68922;DHT22;55959;51.244;5.724;2022-10-16T14:50:38;22.60;57.10
68922;DHT22;55959;51.244;5.724;2022-10-16T14:53:10;22.50;57.10
68922;DHT22;55959;51.244;5.724;2022-10-16T14:55:39;22.50;57.20
68922;DHT22;55959;51.244;5.724;2022-10-16T14:58:08;22.50;57.50
68922;DHT22;55959;51.244;5.724;2022-10-16T15:00:45;22.40;57.40
68922;DHT22;55959;51.244;5.724;2022-10-16T15:03:11;22.40;57.70
68922;DHT22;55959;51.244;5.724;2022-10-16T15:05:37;22.40;57.70
68922;DHT22;55959;51.244;5.724;2022-10-16T15:08:03;22.40;57.70
68922;DHT22;55959;51.244;5.724;2022-10-16T15:10:31;22.40;57.80
68922;DHT22;55959;51.244;5.724;2022-10-16T15:12:58;22.30;57.60
68922;DHT22;55959;51.244;5.724;2022-10-16T15:15:36;22.30;57.60
68922;DHT22;55959;51.244;5.724;2022-10-16T15:18:03;22.30;57.60
68922;DHT22;55959;51.244;5.724;2022-10-16T15:20:35;22.20;57.70
68922;DHT22;55959;51.244;5.724;2022-10-16T15:23:04;22.20;57.80
68922;DHT22;55959;51.244;5.724;2022-10-16T15:25:44;22.30;57.90
68922;DHT22;55959;51.244;5.724;2022-10-16T15:28:15;22.20;58.00
68922;DHT22;55959;51.244;5.724;2022-10-16T15:30:42;22.20;58.10
68922;DHT22;55959;51.244;5.724;2022-10-16T15:33:13;22.20;58.00
68922;DHT22;55959;51.244;5.724;2022-10-16T15:35:41;22.10;58.20
68922;DHT22;55959;51.244;5.724;2022-10-16T15:38:11;22.10;58.30
68922;DHT22;55959;51.244;5.724;2022-10-16T15:40:38;22.10;58.20
68922;DHT22;55959;51.244;5.724;2022-10-16T15:43:05;22.10;58.30
68922;DHT22;55959;51.244;5.724;2022-10-16T15:45:31;22.10;58.30
68922;DHT22;55959;51.244;5.724;2022-10-16T15:47:57;22.00;58.40
68922;DHT22;55959;51.244;5.724;2022-10-16T15:50:22;22.00;58.40
68922;DHT22;55959;51.244;5.724;2022-10-16T15:52:50;22.00;58.60
68922;DHT22;55959;51.244;5.724;2022-10-16T15:55:16;22.00;58.60
68922;DHT22;55959;51.244;5.724;2022-10-16T15:57:44;22.00;58.60
68922;DHT22;55959;51.244;5.724;2022-10-16T16:00:13;21.90;58.60
68922;DHT22;55959;51.244;5.724;2022-10-16T16:02:43;21.90;58.70
68922;DHT22;55959;51.244;5.724;2022-10-16T16:05:15;21.90;58.80
68922;DHT22;55959;51.244;5.724;2022-10-16T16:07:41;21.90;58.90
68922;DHT22;55959;51.244;5.724;2022-10-16T16:10:09;21.80;59.00
68922;DHT22;55959;51.244;5.724;2022-10-16T16:12:36;21.80;59.10
68922;DHT22;55959;51.244;5.724;2022-10-16T16:15:03;21.80;59.30
68922;DHT22;55959;51.244;5.724;2022-10-16T16:17:33;21.70;59.40
68922;DHT22;55959;51.244;5.724;2022-10-16T16:20:00;21.70;59.50
68922;DHT22;55959;51.244;5.724;2022-10-16T16:22:27;21.70;59.50
68922;DHT22;55959;51.244;5.724;2022-10-16T16:24:53;21.60;59.60
68922;DHT22;55959;51.244;5.724;2022-10-16T16:27:19;21.60;59.60
68922;DHT22;55959;51.244;5.724;2022-10-16T16:29:49;21.60;59.70
68922;DHT22;55959;51.244;5.724;2022-10-16T16:32:15;21.60;59.70
68922;DHT22;55959;51.244;5.724;2022-10-16T16:34:41;21.50;59.80
68922;DHT22;55959;51.244;5.724;2022-10-16T16:37:07;21.50;60.00
68922;DHT22;55959;51.244;5.724;2022-10-16T16:39:34;21.40;60.10
68922;DHT22;55959;51.244;5.724;2022-10-16T16:42:00;21.40;60.20
68922;DHT22;55959;51.244;5.724;2022-10-16T16:44:28;21.30;60.00
68922;DHT22;55959;51.244;5.724;2022-10-16T16:46:53;21.30;60.00
68922;DHT22;55959;51.244;5.724;2022-10-16T16:49:19;21.20;60.00
68922;DHT22;55959;51.244;5.724;2022-10-16T16:51:45;21.20;60.10
68922;DHT22;55959;51.244;5.724;2022-10-16T16:54:11;21.20;60.20
68922;DHT22;55959;51.244;5.724;2022-10-16T16:56:40;21.10;60.30
68922;DHT22;55959;51.244;5.724;2022-10-16T16:59:12;21.10;60.60
68922;DHT22;55959;51.244;5.724;2022-10-16T17:01:40;21.00;60.60
68922;DHT22;55959;51.244;5.724;2022-10-16T17:04:06;21.00;60.80
68922;DHT22;55959;51.244;5.724;2022-10-16T17:06:32;21.00;60.90
68922;DHT22;55959;51.244;5.724;2022-10-16T17:09:00;21.00;61.10
68922;DHT22;55959;51.244;5.724;2022-10-16T17:11:28;20.90;61.00
68922;DHT22;55959;51.244;5.724;2022-10-16T17:13:55;20.90;62.10
68922;DHT22;55959;51.244;5.724;2022-10-16T17:16:31;20.90;61.30
68922;DHT22;55959;51.244;5.724;2022-10-16T17:19:00;20.90;61.40
68922;DHT22;55959;51.244;5.724;2022-10-16T17:21:27;20.80;61.30
68922;DHT22;55959;51.244;5.724;2022-10-16T17:23:55;20.80;61.40
68922;DHT22;55959;51.244;5.724;2022-10-16T17:26:21;20.70;61.40
68922;DHT22;55959;51.244;5.724;2022-10-16T17:28:54;20.70;61.40
68922;DHT22;55959;51.244;5.724;2022-10-16T17:31:30;20.70;61.60
68922;DHT22;55959;51.244;5.724;2022-10-16T17:34:01;20.60;61.40
68922;DHT22;55959;51.244;5.724;2022-10-16T17:36:30;20.60;61.50
68922;DHT22;55959;51.244;5.724;2022-10-16T17:38:59;20.60;61.60
68922;DHT22;55959;51.244;5.724;2022-10-16T17:41:29;20.60;61.60